sensor_id;sensor_type;location;lat;lon;timestamp;pressure;altitude;pressure_sealevel;temperature;humidity
52693;BME280;68218;51.012;-1.648;2023-07-16T00:01:40;99548.84;;;14.03;100.00
52693;BME280;68218;51.012;-1.648;2023-07-16T00:04:06;99550.28;;;14.00;100.00
52693;BME280;68218;51.012;-1.648;2023-07-16T00:06:31;99547.56;;;14.00;100.00
52693;BME280;68218;51.012;-1.648;2023-07-16T00:08:57;99548.16;;;13.97;100.00
52693;BME280;68218;51.012;-1.648;2023-07-16T00:11:22;99559.31;;;13.96;100.00
52693;BME280;68218;51.012;-1.648;2023-07-16T00:13:47;99560.72;;;13.93;100.00
52693;BME280;68218;51.012;-1.648;2023-07-16T00:16:14;99563.44;;;13.93;100.00
52693;BME280;68218;51.012;-1.648;2023-07-16T00:18:41;99567.25;;;13.92;100.00
52693;BME280;68218;51.012;-1.648;2023-07-16T00:21:07;99562.63;;;13.93;100.00
52693;BME280;68218;51.012;-1.648;2023-07-16T00:23:33;99568.84;;;13.93;100.00
52693;BME280;68218;51.012;-1.648;2023-07-16T00:25:58;99573.84;;;13.86;100.00
52693;BME280;68218;51.012;-1.648;2023-07-16T00:28:24;99571.44;;;13.84;100.00
52693;BME280;68218;51.012;-1.648;2023-07-16T00:30:49;99570.66;;;13.84;100.00
52693;BME280;68218;51.012;-1.648;2023-07-16T00:33:14;99573.34;;;13.84;100.00
52693;BME280;68218;51.012;-1.648;2023-07-16T00:35:49;99567.25;;;13.78;100.00
52693;BME280;68218;51.012;-1.648;2023-07-16T00:38:17;99576.16;;;13.79;100.00
52693;BME280;68218;51.012;-1.648;2023-07-16T00:40:43;99591.63;;;13.78;100.00
52693;BME280;68218;51.012;-1.648;2023-07-16T00:43:09;99586.72;;;13.80;100.00
52693;BME280;68218;51.012;-1.648;2023-07-16T00:45:35;99588.13;;;13.78;100.00
52693;BME280;68218;51.012;-1.648;2023-07-16T00:48:01;99593.84;;;13.76;100.00
52693;BME280;68218;51.012;-1.648;2023-07-16T00:50:26;99596.84;;;13.75;100.00
52693;BME280;68218;51.012;-1.648;2023-07-16T00:52:53;99604.47;;;13.73;100.00
52693;BME280;68218;51.012;-1.648;2023-07-16T00:55:18;99590.50;;;13.65;100.00
52693;BME280;68218;51.012;-1.648;2023-07-16T00:57:44;99597.53;;;13.66;100.00
52693;BME280;68218;51.012;-1.648;2023-07-16T01:00:11;99607.69;;;13.75;100.00
52693;BME280;68218;51.012;-1.648;2023-07-16T01:02:36;99614.69;;;13.76;100.00
52693;BME280;68218;51.012;-1.648;2023-07-16T01:05:02;99617.50;;;13.71;100.00
52693;BME280;68218;51.012;-1.648;2023-07-16T01:07:29;99606.97;;;13.69;100.00
52693;BME280;68218;51.012;-1.648;2023-07-16T01:09:56;99619.22;;;13.66;100.00
52693;BME280;68218;51.012;-1.648;2023-07-16T01:12:22;99620.94;;;13.62;100.00
52693;BME280;68218;51.012;-1.648;2023-07-16T01:14:49;99635.25;;;13.63;100.00
52693;BME280;68218;51.012;-1.648;2023-07-16T01:17:16;99625.09;;;13.55;100.00
52693;BME280;68218;51.012;-1.648;2023-07-16T01:19:41;99631.63;;;13.54;100.00
52693;BME280;68218;51.012;-1.648;2023-07-16T01:30:01;99638.91;;;13.39;100.00
52693;BME280;68218;51.012;-1.648;2023-07-16T01:32:30;99638.09;;;13.39;100.00
52693;BME280;68218;51.012;-1.648;2023-07-16T01:34:57;99643.44;;;13.44;100.00
52693;BME280;68218;51.012;-1.648;2023-07-16T01:37:22;99637.06;;;13.35;100.00
52693;BME280;68218;51.012;-1.648;2023-07-16T01:39:48;99645.25;;;13.29;100.00
52693;BME280;68218;51.012;-1.648;2023-07-16T01:42:14;99643.09;;;13.32;100.00
52693;BME280;68218;51.012;-1.648;2023-07-16T01:44:39;99638.91;;;13.20;100.00
52693;BME280;68218;51.012;-1.648;2023-07-16T01:47:33;99653.38;;;13.29;100.00
52693;BME280;68218;51.012;-1.648;2023-07-16T01:50:02;99648.03;;;13.24;100.00
52693;BME280;68218;51.012;-1.648;2023-07-16T01:52:28;99648.88;;;13.25;100.00
52693;BME280;68218;51.012;-1.648;2023-07-16T01:54:53;99649.75;;;13.20;100.00
52693;BME280;68218;51.012;-1.648;2023-07-16T01:57:19;99647.53;;;13.22;100.00
52693;BME280;68218;51.012;-1.648;2023-07-16T01:59:44;99652.75;;;13.19;100.00
52693;BME280;68218;51.012;-1.648;2023-07-16T02:02:11;99658.72;;;13.16;100.00
52693;BME280;68218;51.012;-1.648;2023-07-16T02:04:36;99652.03;;;13.13;100.00
52693;BME280;68218;51.012;-1.648;2023-07-16T02:07:02;99655.31;;;13.10;100.00
52693;BME280;68218;51.012;-1.648;2023-07-16T02:09:28;99661.81;;;13.09;100.00
52693;BME280;68218;51.012;-1.648;2023-07-16T02:11:54;99665.13;;;13.06;100.00
52693;BME280;68218;51.012;-1.648;2023-07-16T02:14:19;99660.06;;;12.99;100.00
52693;BME280;68218;51.012;-1.648;2023-07-16T02:16:45;99666.94;;;13.10;100.00
52693;BME280;68218;51.012;-1.648;2023-07-16T02:19:10;99672.28;;;12.97;100.00
52693;BME280;68218;51.012;-1.648;2023-07-16T02:21:36;99677.13;;;13.00;100.00
52693;BME280;68218;51.012;-1.648;2023-07-16T02:24:01;99667.44;;;12.93;100.00
52693;BME280;68218;51.012;-1.648;2023-07-16T02:26:26;99668.06;;;12.90;100.00
52693;BME280;68218;51.012;-1.648;2023-07-16T02:28:52;99665.84;;;12.92;100.00
52693;BME280;68218;51.012;-1.648;2023-07-16T02:31:17;99674.25;;;12.91;100.00
52693;BME280;68218;51.012;-1.648;2023-07-16T02:33:43;99671.34;;;12.87;100.00
52693;BME280;68218;51.012;-1.648;2023-07-16T02:36:08;99669.28;;;12.79;100.00
52693;BME280;68218;51.012;-1.648;2023-07-16T02:38:34;99679.53;;;12.82;100.00
52693;BME280;68218;51.012;-1.648;2023-07-16T02:40:59;99682.81;;;12.79;100.00
52693;BME280;68218;51.012;-1.648;2023-07-16T02:43:25;99681.94;;;12.84;100.00
52693;BME280;68218;51.012;-1.648;2023-07-16T02:45:50;99679.31;;;12.79;100.00
52693;BME280;68218;51.012;-1.648;2023-07-16T02:48:15;99677.91;;;12.81;100.00
52693;BME280;68218;51.012;-1.648;2023-07-16T02:50:41;99679.59;;;12.77;100.00
52693;BME280;68218;51.012;-1.648;2023-07-16T02:53:07;99680.16;;;12.74;100.00
52693;BME280;68218;51.012;-1.648;2023-07-16T02:55:34;99686.97;;;12.71;100.00
52693;BME280;68218;51.012;-1.648;2023-07-16T02:58:00;99691.00;;;12.74;100.00
52693;BME280;68218;51.012;-1.648;2023-07-16T03:00:29;99691.56;;;12.71;100.00
52693;BME280;68218;51.012;-1.648;2023-07-16T03:02:55;99695.66;;;12.68;100.00
52693;BME280;68218;51.012;-1.648;2023-07-16T03:05:20;99697.09;;;12.61;100.00
52693;BME280;68218;51.012;-1.648;2023-07-16T03:07:46;99692.75;;;12.65;100.00
52693;BME280;68218;51.012;-1.648;2023-07-16T03:10:11;99688.19;;;12.60;100.00
52693;BME280;68218;51.012;-1.648;2023-07-16T03:12:36;99695.78;;;12.58;100.00
52693;BME280;68218;51.012;-1.648;2023-07-16T03:15:02;99697.31;;;12.64;100.00
52693;BME280;68218;51.012;-1.648;2023-07-16T03:17:28;99694.91;;;12.63;100.00
52693;BME280;68218;51.012;-1.648;2023-07-16T03:19:53;99699.28;;;12.59;100.00
52693;BME280;68218;51.012;-1.648;2023-07-16T03:22:18;99698.00;;;12.56;100.00
52693;BME280;68218;51.012;-1.648;2023-07-16T03:24:44;99701.19;;;12.58;100.00
52693;BME280;68218;51.012;-1.648;2023-07-16T03:27:09;99708.50;;;12.58;100.00
52693;BME280;68218;51.012;-1.648;2023-07-16T03:29:34;99717.72;;;12.57;99.69
52693;BME280;68218;51.012;-1.648;2023-07-16T03:32:00;99719.78;;;12.65;100.00
52693;BME280;68218;51.012;-1.648;2023-07-16T03:34:26;99721.00;;;12.53;100.00
52693;BME280;68218;51.012;-1.648;2023-07-16T03:36:51;99716.91;;;12.56;100.00
52693;BME280;68218;51.012;-1.648;2023-07-16T03:39:17;99728.09;;;12.49;99.58
52693;BME280;68218;51.012;-1.648;2023-07-16T03:41:43;99726.47;;;12.48;100.00
52693;BME280;68218;51.012;-1.648;2023-07-16T03:44:08;99734.34;;;12.45;100.00
52693;BME280;68218;51.012;-1.648;2023-07-16T03:46:33;99738.69;;;12.46;100.00
52693;BME280;68218;51.012;-1.648;2023-07-16T03:48:59;99738.97;;;12.44;100.00
52693;BME280;68218;51.012;-1.648;2023-07-16T03:51:24;99749.19;;;12.47;100.00
52693;BME280;68218;51.012;-1.648;2023-07-16T03:53:50;99756.28;;;12.43;100.00
52693;BME280;68218;51.012;-1.648;2023-07-16T03:56:15;99750.28;;;12.46;100.00
52693;BME280;68218;51.012;-1.648;2023-07-16T03:58:40;99749.50;;;12.46;100.00
52693;BME280;68218;51.012;-1.648;2023-07-16T04:01:06;99751.66;;;12.44;100.00
52693;BME280;68218;51.012;-1.648;2023-07-16T04:03:31;99758.13;;;12.48;100.00
52693;BME280;68218;51.012;-1.648;2023-07-16T04:06:04;99758.47;;;12.41;100.00
52693;BME280;68218;51.012;-1.648;2023-07-16T04:08:30;99760.06;;;12.42;100.00
52693;BME280;68218;51.012;-1.648;2023-07-16T04:10:55;99759.47;;;12.45;100.00
52693;BME280;68218;51.012;-1.648;2023-07-16T04:13:21;99767.88;;;12.44;100.00
52693;BME280;68218;51.012;-1.648;2023-07-16T04:15:46;99774.16;;;12.39;100.00
52693;BME280;68218;51.012;-1.648;2023-07-16T04:18:12;99771.97;;;12.41;100.00
52693;BME280;68218;51.012;-1.648;2023-07-16T04:20:37;99771.13;;;12.46;100.00
52693;BME280;68218;51.012;-1.648;2023-07-16T04:23:02;99771.47;;;12.39;100.00
52693;BME280;68218;51.012;-1.648;2023-07-16T04:25:28;99777.91;;;12.43;100.00
52693;BME280;68218;51.012;-1.648;2023-07-16T04:27:53;99775.25;;;12.38;100.00
52693;BME280;68218;51.012;-1.648;2023-07-16T04:30:19;99783.31;;;12.43;100.00
52693;BME280;68218;51.012;-1.648;2023-07-16T04:32:44;99782.81;;;12.41;100.00
52693;BME280;68218;51.012;-1.648;2023-07-16T04:35:09;99792.78;;;12.46;100.00
52693;BME280;68218;51.012;-1.648;2023-07-16T04:37:35;99791.16;;;12.45;100.00
52693;BME280;68218;51.012;-1.648;2023-07-16T04:40:00;99796.28;;;12.46;100.00
52693;BME280;68218;51.012;-1.648;2023-07-16T04:42:26;99800.56;;;12.47;100.00
52693;BME280;68218;51.012;-1.648;2023-07-16T04:44:51;99797.81;;;12.52;100.00
52693;BME280;68218;51.012;-1.648;2023-07-16T04:47:16;99800.00;;;12.50;100.00
52693;BME280;68218;51.012;-1.648;2023-07-16T04:49:42;99791.44;;;12.43;100.00
52693;BME280;68218;51.012;-1.648;2023-07-16T04:52:08;99801.84;;;12.55;100.00
52693;BME280;68218;51.012;-1.648;2023-07-16T04:54:37;99807.31;;;12.50;100.00
52693;BME280;68218;51.012;-1.648;2023-07-16T04:57:03;99811.59;;;12.56;100.00
52693;BME280;68218;51.012;-1.648;2023-07-16T04:59:29;99813.00;;;12.48;100.00
52693;BME280;68218;51.012;-1.648;2023-07-16T05:01:54;99825.06;;;12.61;100.00
52693;BME280;68218;51.012;-1.648;2023-07-16T05:04:20;99819.13;;;12.59;100.00
52693;BME280;68218;51.012;-1.648;2023-07-16T05:06:45;99821.53;;;12.61;100.00
52693;BME280;68218;51.012;-1.648;2023-07-16T05:09:11;99825.53;;;12.68;100.00
52693;BME280;68218;51.012;-1.648;2023-07-16T05:11:36;99830.72;;;12.65;100.00
52693;BME280;68218;51.012;-1.648;2023-07-16T05:14:03;99823.69;;;12.64;100.00
52693;BME280;68218;51.012;-1.648;2023-07-16T05:16:28;99828.28;;;12.63;100.00
52693;BME280;68218;51.012;-1.648;2023-07-16T05:18:54;99838.00;;;12.64;100.00
52693;BME280;68218;51.012;-1.648;2023-07-16T05:21:19;99843.19;;;12.61;100.00
52693;BME280;68218;51.012;-1.648;2023-07-16T05:23:45;99838.53;;;12.66;100.00
52693;BME280;68218;51.012;-1.648;2023-07-16T05:26:10;99842.63;;;12.64;99.11
52693;BME280;68218;51.012;-1.648;2023-07-16T05:28:35;99857.06;;;12.78;100.00
52693;BME280;68218;51.012;-1.648;2023-07-16T05:31:02;99851.59;;;12.83;100.00
52693;BME280;68218;51.012;-1.648;2023-07-16T05:33:27;99861.28;;;12.89;99.04
52693;BME280;68218;51.012;-1.648;2023-07-16T05:35:53;99861.75;;;12.97;100.00
52693;BME280;68218;51.012;-1.648;2023-07-16T05:38:19;99862.47;;;13.07;100.00
52693;BME280;68218;51.012;-1.648;2023-07-16T05:40:44;99868.16;;;13.06;97.70
52693;BME280;68218;51.012;-1.648;2023-07-16T05:43:10;99868.56;;;13.18;99.17
52693;BME280;68218;51.012;-1.648;2023-07-16T05:45:36;99864.16;;;13.22;99.00
52693;BME280;68218;51.012;-1.648;2023-07-16T05:48:02;99868.50;;;13.23;97.10
52693;BME280;68218;51.012;-1.648;2023-07-16T05:50:28;99871.94;;;13.29;99.49
52693;BME280;68218;51.012;-1.648;2023-07-16T05:52:54;99865.78;;;13.23;95.70
52693;BME280;68218;51.012;-1.648;2023-07-16T05:55:19;99876.75;;;13.37;96.41
52693;BME280;68218;51.012;-1.648;2023-07-16T05:57:45;99883.41;;;13.45;98.39
52693;BME280;68218;51.012;-1.648;2023-07-16T06:00:12;99889.66;;;13.45;97.28
52693;BME280;68218;51.012;-1.648;2023-07-16T06:02:38;99889.31;;;13.52;97.80
52693;BME280;68218;51.012;-1.648;2023-07-16T06:05:04;99898.00;;;13.49;94.93
52693;BME280;68218;51.012;-1.648;2023-07-16T06:07:30;99889.25;;;13.57;94.48
52693;BME280;68218;51.012;-1.648;2023-07-16T06:09:56;99910.03;;;13.62;95.98
52693;BME280;68218;51.012;-1.648;2023-07-16T06:12:22;99905.72;;;13.61;92.89
52693;BME280;68218;51.012;-1.648;2023-07-16T06:14:47;99908.75;;;13.78;95.27
52693;BME280;68218;51.012;-1.648;2023-07-16T06:17:12;99917.03;;;13.87;96.42
52693;BME280;68218;51.012;-1.648;2023-07-16T06:19:38;99917.47;;;13.94;97.05
52693;BME280;68218;51.012;-1.648;2023-07-16T06:22:04;99930.16;;;13.99;95.17
52693;BME280;68218;51.012;-1.648;2023-07-16T06:24:29;99929.34;;;13.98;95.36
52693;BME280;68218;51.012;-1.648;2023-07-16T06:26:54;99932.56;;;14.00;94.50
52693;BME280;68218;51.012;-1.648;2023-07-16T06:29:20;99936.28;;;14.04;93.84
52693;BME280;68218;51.012;-1.648;2023-07-16T06:31:58;99944.06;;;14.11;94.84
52693;BME280;68218;51.012;-1.648;2023-07-16T06:34:24;99938.13;;;14.09;91.15
52693;BME280;68218;51.012;-1.648;2023-07-16T06:36:50;99942.06;;;14.17;93.48
52693;BME280;68218;51.012;-1.648;2023-07-16T06:39:15;99947.50;;;14.17;91.44
52693;BME280;68218;51.012;-1.648;2023-07-16T06:41:41;99948.75;;;14.24;90.16
52693;BME280;68218;51.012;-1.648;2023-07-16T06:44:06;99946.97;;;14.34;90.53
52693;BME280;68218;51.012;-1.648;2023-07-16T06:46:32;99948.31;;;14.36;90.17
52693;BME280;68218;51.012;-1.648;2023-07-16T06:48:57;99951.59;;;14.52;91.27
52693;BME280;68218;51.012;-1.648;2023-07-16T06:51:23;99952.53;;;14.61;93.11
52693;BME280;68218;51.012;-1.648;2023-07-16T06:53:48;99959.38;;;14.59;88.01
52693;BME280;68218;51.012;-1.648;2023-07-16T06:56:14;99959.22;;;14.69;91.59
52693;BME280;68218;51.012;-1.648;2023-07-16T06:58:39;99954.47;;;14.61;93.09
52693;BME280;68218;51.012;-1.648;2023-07-16T07:01:04;99965.81;;;14.63;90.93
52693;BME280;68218;51.012;-1.648;2023-07-16T07:03:30;99955.41;;;14.70;86.49
52693;BME280;68218;51.012;-1.648;2023-07-16T07:05:55;99963.16;;;14.77;84.95
52693;BME280;68218;51.012;-1.648;2023-07-16T07:08:21;99957.38;;;14.97;88.09
52693;BME280;68218;51.012;-1.648;2023-07-16T07:10:48;99966.34;;;14.98;83.79
52693;BME280;68218;51.012;-1.648;2023-07-16T07:13:14;99973.47;;;15.08;83.73
52693;BME280;68218;51.012;-1.648;2023-07-16T07:15:41;99985.69;;;15.38;84.15
52693;BME280;68218;51.012;-1.648;2023-07-16T07:18:06;99987.72;;;15.46;80.92
52693;BME280;68218;51.012;-1.648;2023-07-16T07:20:32;99994.59;;;15.71;81.91
52693;BME280;68218;51.012;-1.648;2023-07-16T07:22:57;99993.75;;;15.99;81.12
52693;BME280;68218;51.012;-1.648;2023-07-16T07:25:24;99995.25;;;16.05;82.37
52693;BME280;68218;51.012;-1.648;2023-07-16T07:27:49;100006.03;;;16.10;78.12
52693;BME280;68218;51.012;-1.648;2023-07-16T07:30:15;100002.56;;;16.32;81.55
52693;BME280;68218;51.012;-1.648;2023-07-16T07:32:40;100007.47;;;16.66;85.94
52693;BME280;68218;51.012;-1.648;2023-07-16T07:35:05;100006.88;;;16.70;79.55
52693;BME280;68218;51.012;-1.648;2023-07-16T07:37:31;99999.16;;;16.85;80.01
52693;BME280;68218;51.012;-1.648;2023-07-16T07:39:58;100008.13;;;17.09;79.00
52693;BME280;68218;51.012;-1.648;2023-07-16T07:42:24;100008.13;;;17.09;76.52
52693;BME280;68218;51.012;-1.648;2023-07-16T07:44:50;100001.44;;;17.23;75.92
52693;BME280;68218;51.012;-1.648;2023-07-16T07:47:15;100021.19;;;17.20;76.63
52693;BME280;68218;51.012;-1.648;2023-07-16T07:49:40;100024.56;;;17.26;76.16
52693;BME280;68218;51.012;-1.648;2023-07-16T07:52:06;100005.25;;;17.45;73.25
52693;BME280;68218;51.012;-1.648;2023-07-16T07:54:32;100013.47;;;17.54;76.30
52693;BME280;68218;51.012;-1.648;2023-07-16T07:57:01;100008.97;;;17.58;71.87
52693;BME280;68218;51.012;-1.648;2023-07-16T07:59:29;100015.75;;;17.69;71.02
52693;BME280;68218;51.012;-1.648;2023-07-16T08:01:54;100016.72;;;18.05;73.62
52693;BME280;68218;51.012;-1.648;2023-07-16T08:04:20;100023.47;;;18.25;74.29
52693;BME280;68218;51.012;-1.648;2023-07-16T08:06:45;100012.72;;;18.37;71.60
52693;BME280;68218;51.012;-1.648;2023-07-16T08:09:10;100009.50;;;18.35;72.91
52693;BME280;68218;51.012;-1.648;2023-07-16T08:11:36;100018.50;;;18.36;71.99
52693;BME280;68218;51.012;-1.648;2023-07-16T08:14:01;100022.50;;;18.47;72.65
52693;BME280;68218;51.012;-1.648;2023-07-16T08:16:27;100021.09;;;18.41;67.41
52693;BME280;68218;51.012;-1.648;2023-07-16T08:18:52;100025.56;;;18.45;72.71
52693;BME280;68218;51.012;-1.648;2023-07-16T08:21:18;100017.53;;;18.40;65.60
52693;BME280;68218;51.012;-1.648;2023-07-16T08:23:47;100032.97;;;18.71;70.62
52693;BME280;68218;51.012;-1.648;2023-07-16T08:26:12;100025.88;;;18.35;64.83
52693;BME280;68218;51.012;-1.648;2023-07-16T08:28:38;100036.16;;;18.47;66.91
52693;BME280;68218;51.012;-1.648;2023-07-16T08:31:03;100036.16;;;19.08;71.61
52693;BME280;68218;51.012;-1.648;2023-07-16T08:33:28;100026.38;;;18.55;71.70
52693;BME280;68218;51.012;-1.648;2023-07-16T08:35:54;100038.59;;;19.09;72.59
52693;BME280;68218;51.012;-1.648;2023-07-16T08:38:19;100042.78;;;18.98;67.52
52693;BME280;68218;51.012;-1.648;2023-07-16T08:40:46;100029.44;;;18.70;71.76
52693;BME280;68218;51.012;-1.648;2023-07-16T08:43:12;100036.63;;;18.14;70.31
52693;BME280;68218;51.012;-1.648;2023-07-16T08:45:40;100038.22;;;17.98;66.29
52693;BME280;68218;51.012;-1.648;2023-07-16T08:48:08;100039.72;;;18.65;69.26
52693;BME280;68218;51.012;-1.648;2023-07-16T08:50:35;100041.50;;;18.78;67.47
52693;BME280;68218;51.012;-1.648;2023-07-16T08:53:01;100046.81;;;19.01;67.34
52693;BME280;68218;51.012;-1.648;2023-07-16T08:55:28;100053.22;;;19.61;71.58
52693;BME280;68218;51.012;-1.648;2023-07-16T08:57:53;100050.31;;;19.75;65.55
52693;BME280;68218;51.012;-1.648;2023-07-16T09:00:19;100050.47;;;19.70;66.97
52693;BME280;68218;51.012;-1.648;2023-07-16T09:02:45;100051.69;;;19.90;69.15
52693;BME280;68218;51.012;-1.648;2023-07-16T09:05:11;100050.25;;;19.45;63.10
52693;BME280;68218;51.012;-1.648;2023-07-16T09:07:39;100055.72;;;19.45;66.08
52693;BME280;68218;51.012;-1.648;2023-07-16T09:10:05;100062.03;;;19.28;65.66
52693;BME280;68218;51.012;-1.648;2023-07-16T09:12:31;100052.44;;;18.96;68.32
52693;BME280;68218;51.012;-1.648;2023-07-16T09:14:56;100056.59;;;19.19;67.76
52693;BME280;68218;51.012;-1.648;2023-07-16T09:17:22;100049.53;;;19.01;64.58
52693;BME280;68218;51.012;-1.648;2023-07-16T09:19:51;100060.50;;;18.83;64.54
52693;BME280;68218;51.012;-1.648;2023-07-16T09:22:18;100049.81;;;18.38;66.23
52693;BME280;68218;51.012;-1.648;2023-07-16T09:24:47;100055.28;;;18.56;66.36
52693;BME280;68218;51.012;-1.648;2023-07-16T09:27:13;100065.72;;;18.80;65.15
52693;BME280;68218;51.012;-1.648;2023-07-16T09:29:39;100057.53;;;19.15;63.38
52693;BME280;68218;51.012;-1.648;2023-07-16T09:32:04;100058.84;;;19.00;64.15
52693;BME280;68218;51.012;-1.648;2023-07-16T09:34:30;100062.53;;;18.51;61.21
52693;BME280;68218;51.012;-1.648;2023-07-16T09:36:59;100067.84;;;19.00;64.86
52693;BME280;68218;51.012;-1.648;2023-07-16T09:39:26;100070.41;;;19.05;62.41
52693;BME280;68218;51.012;-1.648;2023-07-16T09:41:52;100070.25;;;19.67;62.03
52693;BME280;68218;51.012;-1.648;2023-07-16T09:44:19;100081.13;;;19.45;64.09
52693;BME280;68218;51.012;-1.648;2023-07-16T09:46:45;100076.56;;;19.58;59.94
52693;BME280;68218;51.012;-1.648;2023-07-16T09:49:12;100069.94;;;19.77;60.31
52693;BME280;68218;51.012;-1.648;2023-07-16T09:51:38;100081.31;;;19.88;62.40
52693;BME280;68218;51.012;-1.648;2023-07-16T09:54:05;100083.56;;;20.24;61.21
52693;BME280;68218;51.012;-1.648;2023-07-16T09:56:44;100074.28;;;20.37;58.27
52693;BME280;68218;51.012;-1.648;2023-07-16T09:59:13;100069.22;;;20.48;59.63
52693;BME280;68218;51.012;-1.648;2023-07-16T10:01:40;100077.50;;;20.61;56.94
52693;BME280;68218;51.012;-1.648;2023-07-16T10:04:16;100083.03;;;21.15;58.19
52693;BME280;68218;51.012;-1.648;2023-07-16T10:06:58;100071.34;;;20.43;60.82
52693;BME280;68218;51.012;-1.648;2023-07-16T10:09:38;100084.41;;;20.16;59.26
52693;BME280;68218;51.012;-1.648;2023-07-16T10:14:42;100096.84;;;20.64;60.14
52693;BME280;68218;51.012;-1.648;2023-07-16T10:17:12;100096.91;;;20.76;60.32
52693;BME280;68218;51.012;-1.648;2023-07-16T10:22:42;100093.63;;;20.83;60.56
52693;BME280;68218;51.012;-1.648;2023-07-16T10:25:22;100092.25;;;20.77;63.67
52693;BME280;68218;51.012;-1.648;2023-07-16T10:27:50;100068.25;;;20.44;62.02
52693;BME280;68218;51.012;-1.648;2023-07-16T10:30:16;100097.78;;;20.38;56.10
52693;BME280;68218;51.012;-1.648;2023-07-16T10:32:43;100104.97;;;21.48;60.67
52693;BME280;68218;51.012;-1.648;2023-07-16T10:35:09;100107.28;;;21.71;53.91
52693;BME280;68218;51.012;-1.648;2023-07-16T10:37:35;100107.06;;;20.97;57.75
52693;BME280;68218;51.012;-1.648;2023-07-16T10:40:02;100104.03;;;20.48;57.51
52693;BME280;68218;51.012;-1.648;2023-07-16T10:42:31;100110.91;;;20.54;60.35
52693;BME280;68218;51.012;-1.648;2023-07-16T10:45:02;100113.56;;;21.26;59.40
52693;BME280;68218;51.012;-1.648;2023-07-16T10:47:35;100111.19;;;21.70;58.42
52693;BME280;68218;51.012;-1.648;2023-07-16T10:50:06;100121.00;;;21.59;51.46
52693;BME280;68218;51.012;-1.648;2023-07-16T10:52:33;100115.00;;;22.15;53.33
52693;BME280;68218;51.012;-1.648;2023-07-16T10:54:59;100107.56;;;22.52;54.65
52693;BME280;68218;51.012;-1.648;2023-07-16T10:57:25;100114.84;;;22.73;49.81
52693;BME280;68218;51.012;-1.648;2023-07-16T10:59:51;100109.69;;;23.12;54.70
52693;BME280;68218;51.012;-1.648;2023-07-16T11:02:18;100117.31;;;22.90;59.17
52693;BME280;68218;51.012;-1.648;2023-07-16T11:04:45;100114.31;;;22.42;54.79
52693;BME280;68218;51.012;-1.648;2023-07-16T11:07:12;100124.16;;;21.82;53.68
52693;BME280;68218;51.012;-1.648;2023-07-16T11:09:47;100127.31;;;21.38;52.51
52693;BME280;68218;51.012;-1.648;2023-07-16T11:12:15;100127.66;;;21.70;53.54
52693;BME280;68218;51.012;-1.648;2023-07-16T11:14:51;100129.31;;;21.96;54.71
52693;BME280;68218;51.012;-1.648;2023-07-16T11:17:17;100125.19;;;22.14;52.86
52693;BME280;68218;51.012;-1.648;2023-07-16T11:19:47;100136.19;;;22.39;52.62
52693;BME280;68218;51.012;-1.648;2023-07-16T11:22:14;100133.94;;;21.70;54.79
52693;BME280;68218;51.012;-1.648;2023-07-16T11:24:41;100126.00;;;22.15;52.22
52693;BME280;68218;51.012;-1.648;2023-07-16T11:27:25;100115.94;;;22.84;52.38
52693;BME280;68218;51.012;-1.648;2023-07-16T11:32:35;100134.94;;;21.54;53.39
52693;BME280;68218;51.012;-1.648;2023-07-16T11:35:02;100143.91;;;21.63;57.23
52693;BME280;68218;51.012;-1.648;2023-07-16T11:37:29;100141.38;;;21.58;56.31
52693;BME280;68218;51.012;-1.648;2023-07-16T11:40:03;100133.38;;;21.65;61.17
52693;BME280;68218;51.012;-1.648;2023-07-16T11:42:37;100127.66;;;21.70;53.95
52693;BME280;68218;51.012;-1.648;2023-07-16T11:45:03;100127.25;;;22.42;56.61
52693;BME280;68218;51.012;-1.648;2023-07-16T11:47:30;100122.81;;;23.47;53.90
52693;BME280;68218;51.012;-1.648;2023-07-16T11:49:56;100127.44;;;23.43;50.60
52693;BME280;68218;51.012;-1.648;2023-07-16T11:52:24;100126.75;;;22.65;53.09
52693;BME280;68218;51.012;-1.648;2023-07-16T11:54:51;100142.84;;;22.50;55.02
52693;BME280;68218;51.012;-1.648;2023-07-16T11:57:17;100127.25;;;22.54;48.43
52693;BME280;68218;51.012;-1.648;2023-07-16T11:59:42;100138.56;;;22.65;50.94
52693;BME280;68218;51.012;-1.648;2023-07-16T12:02:08;100128.22;;;23.43;54.53
52693;BME280;68218;51.012;-1.648;2023-07-16T12:04:34;100131.94;;;23.95;50.41
52693;BME280;68218;51.012;-1.648;2023-07-16T12:06:59;100121.75;;;23.07;49.42
52693;BME280;68218;51.012;-1.648;2023-07-16T12:09:24;100127.41;;;22.86;50.09
52693;BME280;68218;51.012;-1.648;2023-07-16T12:11:50;100132.19;;;22.89;54.61
52693;BME280;68218;51.012;-1.648;2023-07-16T12:14:16;100123.03;;;22.32;51.55
52693;BME280;68218;51.012;-1.648;2023-07-16T12:16:41;100132.09;;;23.26;48.69
52693;BME280;68218;51.012;-1.648;2023-07-16T12:19:09;100137.09;;;22.18;48.27
52693;BME280;68218;51.012;-1.648;2023-07-16T12:21:35;100143.69;;;21.80;51.32
52693;BME280;68218;51.012;-1.648;2023-07-16T12:24:00;100134.56;;;22.25;54.61
52693;BME280;68218;51.012;-1.648;2023-07-16T12:26:26;100151.50;;;21.91;51.21
52693;BME280;68218;51.012;-1.648;2023-07-16T12:28:51;100141.41;;;22.81;51.48
52693;BME280;68218;51.012;-1.648;2023-07-16T12:31:17;100154.03;;;22.20;49.51
52693;BME280;68218;51.012;-1.648;2023-07-16T12:33:43;100148.19;;;22.22;48.96
52693;BME280;68218;51.012;-1.648;2023-07-16T12:36:09;100156.09;;;23.01;51.76
52693;BME280;68218;51.012;-1.648;2023-07-16T12:38:34;100151.59;;;22.80;46.37
52693;BME280;68218;51.012;-1.648;2023-07-16T12:41:00;100154.94;;;23.14;49.99
52693;BME280;68218;51.012;-1.648;2023-07-16T12:43:25;100167.09;;;23.01;45.61
52693;BME280;68218;51.012;-1.648;2023-07-16T12:45:50;100175.06;;;23.31;50.19
52693;BME280;68218;51.012;-1.648;2023-07-16T12:48:16;100166.38;;;22.63;52.15
52693;BME280;68218;51.012;-1.648;2023-07-16T12:50:41;100174.63;;;22.26;51.05
52693;BME280;68218;51.012;-1.648;2023-07-16T12:53:07;100175.13;;;22.29;49.90